createdAt,value
2018-03-03T00:00:42.242Z,0
2018-03-03T00:01:52.401Z,0
2018-03-03T00:03:02.293Z,0
2018-03-03T00:04:12.448Z,0
2018-03-03T00:05:22.622Z,0
2018-03-03T00:06:32.559Z,0
2018-03-03T00:07:42.784Z,0
2018-03-03T00:08:52.802Z,0
2018-03-03T00:10:02.951Z,0
2018-03-03T00:11:12.780Z,0
2018-03-03T00:12:22.678Z,0
2018-03-03T00:13:32.684Z,0
2018-03-03T00:14:42.316Z,0
2018-03-03T00:15:52.107Z,0
2018-03-03T00:17:02.261Z,0
2018-03-03T00:18:11.782Z,0
2018-03-03T00:19:21.694Z,0
2018-03-03T00:20:31.501Z,0
2018-03-03T00:21:41.738Z,0
2018-03-03T00:22:51.646Z,0
2018-03-03T00:24:01.804Z,0
2018-03-03T00:25:11.946Z,0
2018-03-03T00:26:21.991Z,0
2018-03-03T00:27:31.782Z,0
2018-03-03T00:28:41.777Z,0
2018-03-03T00:29:51.935Z,0
2018-03-03T00:31:01.920Z,0
2018-03-03T00:32:11.740Z,0
2018-03-03T00:33:21.680Z,0
2018-03-03T00:34:31.498Z,0
2018-03-03T00:35:41.305Z,0
2018-03-03T00:36:51.290Z,0
2018-03-03T00:38:01.428Z,0
2018-03-03T00:39:11.619Z,0
2018-03-03T00:40:21.495Z,0
2018-03-03T00:41:31.413Z,0
2018-03-03T00:42:41.049Z,0
2018-03-03T00:43:51.216Z,0
2018-03-03T00:45:01.634Z,0
2018-03-03T00:46:11.576Z,0
2018-03-03T00:47:21.765Z,0
2018-03-03T00:48:31.377Z,0
2018-03-03T00:49:41.276Z,0
2018-03-03T00:50:50.986Z,0
2018-03-03T00:52:01.165Z,0
2018-03-03T00:53:11.283Z,0
2018-03-03T00:54:20.759Z,0
2018-03-03T00:55:30.682Z,0
2018-03-03T00:56:41.140Z,0
2018-03-03T00:57:51.075Z,0
2018-03-03T00:59:01.079Z,0
2018-03-03T01:00:10.667Z,0
2018-03-03T01:01:20.534Z,0
2018-03-03T01:02:30.670Z,0
2018-03-03T01:03:40.845Z,0
2018-03-03T01:04:51.082Z,0
2018-03-03T01:06:01.000Z,0
2018-03-03T01:07:11.192Z,0
2018-03-03T01:08:21.359Z,0
2018-03-03T01:09:30.922Z,0
2018-03-03T01:10:41.092Z,0
2018-03-03T01:11:51.037Z,0
2018-03-03T01:13:00.860Z,0
2018-03-03T01:14:10.978Z,0
2018-03-03T01:15:20.878Z,0
2018-03-03T01:16:30.975Z,0
2018-03-03T01:17:41.299Z,0
2018-03-03T01:18:51.442Z,0
2018-03-03T01:20:01.581Z,0
2018-03-03T01:21:11.709Z,0
2018-03-03T01:22:21.859Z,0
2018-03-03T01:23:31.639Z,0
2018-03-03T01:24:41.785Z,0
2018-03-03T01:25:51.898Z,0
2018-03-03T01:27:01.775Z,0
2018-03-03T01:28:11.902Z,0
2018-03-03T01:29:22.052Z,0
2018-03-03T01:30:32.186Z,0
2018-03-03T01:31:42.346Z,0
2018-03-03T01:32:52.236Z,0
2018-03-03T01:34:02.344Z,0
2018-03-03T01:35:12.499Z,0
2018-03-03T01:36:22.677Z,0
2018-03-03T01:37:32.532Z,0
2018-03-03T01:38:42.659Z,0
2018-03-03T01:39:52.789Z,0
2018-03-03T01:41:03.076Z,0
2018-03-03T01:42:13.213Z,0
2018-03-03T01:43:23.333Z,0
2018-03-03T01:44:33.448Z,0
2018-03-03T01:45:43.560Z,0
2018-03-03T01:46:53.405Z,0
2018-03-03T01:48:03.284Z,0
2018-03-03T01:49:13.418Z,0
2018-03-03T01:50:23.538Z,0
2018-03-03T01:51:33.702Z,0
2018-03-03T01:52:43.877Z,0
2018-03-03T01:53:53.975Z,0
2018-03-03T01:55:04.123Z,0
2018-03-03T01:56:14.256Z,0
2018-03-03T01:57:24.025Z,0
2018-03-03T01:58:33.911Z,0
2018-03-03T01:59:43.899Z,0
2018-03-03T02:00:54.053Z,0
2018-03-03T02:02:03.917Z,0
2018-03-03T02:03:13.775Z,0
2018-03-03T02:04:23.972Z,0
2018-03-03T02:05:33.845Z,0
2018-03-03T02:06:45.133Z,0
2018-03-03T02:07:55.376Z,0
2018-03-03T02:09:05.513Z,0
2018-03-03T02:10:15.444Z,0
2018-03-03T02:11:25.290Z,0
2018-03-03T02:12:35.495Z,0
2018-03-03T02:13:45.627Z,0
2018-03-03T02:14:55.747Z,0
2018-03-03T02:16:05.612Z,0
2018-03-03T02:17:15.720Z,0
2018-03-03T02:18:25.596Z,0
2018-03-03T02:19:35.480Z,0
2018-03-03T02:20:45.470Z,0
2018-03-03T02:21:55.598Z,0
2018-03-03T02:23:05.585Z,0
2018-03-03T02:24:15.773Z,0
2018-03-03T02:25:25.838Z,0
2018-03-03T02:26:35.693Z,0
2018-03-03T02:27:45.565Z,0
2018-03-03T02:28:55.893Z,0
2018-03-03T02:30:06.028Z,0
2018-03-03T02:31:15.546Z,0
2018-03-03T02:32:25.683Z,0
2018-03-03T02:33:36.043Z,0
2018-03-03T02:34:46.190Z,0
2018-03-03T02:35:55.991Z,0
2018-03-03T02:37:06.171Z,0
2018-03-03T02:38:16.297Z,0
2018-03-03T02:39:26.462Z,0
2018-03-03T02:40:36.726Z,0
2018-03-03T02:41:46.860Z,0
2018-03-03T02:42:57.016Z,0
2018-03-03T02:44:07.240Z,0
2018-03-03T02:45:17.484Z,0
2018-03-03T02:46:27.677Z,0
2018-03-03T02:47:38.129Z,0
2018-03-03T02:48:47.887Z,0
2018-03-03T02:49:57.495Z,0
2018-03-03T02:51:07.416Z,0
2018-03-03T02:52:17.819Z,0
2018-03-03T02:53:28.032Z,0
2018-03-03T02:54:38.348Z,0
2018-03-03T02:55:48.706Z,0
2018-03-03T02:56:58.841Z,0
2018-03-03T02:58:08.732Z,0
2018-03-03T02:59:18.609Z,0
2018-03-03T03:00:28.753Z,0
2018-03-03T03:01:39.124Z,0
2018-03-03T03:02:49.324Z,0
2018-03-03T03:03:59.110Z,0
2018-03-03T03:05:09.293Z,0
2018-03-03T03:06:19.441Z,0
2018-03-03T03:07:29.587Z,0
2018-03-03T03:08:39.754Z,0
2018-03-03T03:09:49.641Z,0
2018-03-03T03:10:59.842Z,0
2018-03-03T03:12:09.961Z,0
2018-03-03T03:13:19.889Z,0
2018-03-03T03:14:30.658Z,0
2018-03-03T03:15:40.426Z,0
2018-03-03T03:16:50.558Z,0
2018-03-03T03:18:00.517Z,0
2018-03-03T03:19:10.916Z,0
2018-03-03T03:20:21.058Z,0
2018-03-03T03:21:31.173Z,0
2018-03-03T03:22:41.300Z,0
2018-03-03T03:23:51.741Z,0
2018-03-03T03:25:02.042Z,0
2018-03-03T03:26:12.178Z,0
2018-03-03T03:27:22.366Z,0
2018-03-03T03:28:32.482Z,0
2018-03-03T03:29:42.697Z,0
2018-03-03T03:30:52.911Z,0
2018-03-03T03:32:02.674Z,0
2018-03-03T03:33:13.103Z,0
2018-03-03T03:34:23.242Z,0
2018-03-03T03:35:33.602Z,0
2018-03-03T03:36:43.989Z,0
2018-03-03T03:37:54.343Z,0
2018-03-03T03:39:04.485Z,0
2018-03-03T03:40:14.613Z,0
2018-03-03T03:41:25.062Z,0
2018-03-03T03:42:35.209Z,0
2018-03-03T03:43:45.290Z,0
2018-03-03T03:44:55.633Z,0
2018-03-03T03:46:05.803Z,0
2018-03-03T03:47:16.171Z,0
2018-03-03T03:48:26.006Z,0
2018-03-03T03:49:36.129Z,0
2018-03-03T03:50:45.748Z,0
2018-03-03T03:51:55.874Z,0
2018-03-03T03:53:05.981Z,0
2018-03-03T03:54:16.349Z,0
2018-03-03T03:55:26.508Z,0
2018-03-03T03:56:36.754Z,0
2018-03-03T03:57:46.885Z,0
2018-03-03T03:58:57.227Z,0
2018-03-03T04:00:07.368Z,0
2018-03-03T04:01:17.964Z,0
2018-03-03T04:02:28.440Z,0
2018-03-03T04:03:38.674Z,0
2018-03-03T04:04:48.806Z,0
2018-03-03T04:05:59.415Z,0
2018-03-03T04:07:09.533Z,0
2018-03-03T04:08:19.718Z,0
2018-03-03T04:09:29.893Z,0
2018-03-03T04:10:40.507Z,0
2018-03-03T04:11:50.964Z,0
2018-03-03T04:13:01.386Z,0
2018-03-03T04:14:12.002Z,0
2018-03-03T04:15:21.887Z,0
2018-03-03T04:16:32.251Z,0
2018-03-03T04:17:42.395Z,0
2018-03-03T04:18:52.505Z,0
2018-03-03T04:20:02.856Z,0
2018-03-03T04:21:13.221Z,0
2018-03-03T04:22:23.576Z,0
2018-03-03T04:23:33.572Z,0
2018-03-03T04:24:44.000Z,0
2018-03-03T04:25:54.557Z,0
2018-03-03T04:27:04.151Z,0
2018-03-03T04:28:14.855Z,0
2018-03-03T04:29:25.276Z,0
2018-03-03T04:30:35.617Z,0
2018-03-03T04:31:45.808Z,0
2018-03-03T04:32:56.456Z,0
2018-03-03T04:34:06.298Z,0
2018-03-03T04:35:16.516Z,0
2018-03-03T04:36:26.734Z,0
2018-03-03T04:37:36.907Z,0
2018-03-03T04:38:47.261Z,0
2018-03-03T04:39:57.617Z,0
2018-03-03T04:41:08.166Z,0
2018-03-03T04:42:18.225Z,0
2018-03-03T04:43:28.445Z,0
2018-03-03T04:44:39.343Z,0
2018-03-03T04:45:49.973Z,0
2018-03-03T04:47:00.666Z,0
2018-03-03T04:48:11.650Z,0
2018-03-03T04:49:22.127Z,0
2018-03-03T04:50:32.325Z,0
2018-03-03T04:51:42.685Z,0
2018-03-03T04:52:52.854Z,0
2018-03-03T04:54:02.967Z,0
2018-03-03T04:55:13.339Z,0
2018-03-03T04:56:23.453Z,0
2018-03-03T04:57:33.624Z,0
2018-03-03T04:58:43.481Z,0
2018-03-03T04:59:53.610Z,0
2018-03-03T05:01:03.513Z,0
2018-03-03T05:02:13.630Z,0
2018-03-03T05:03:23.505Z,0
2018-03-03T05:04:32.997Z,0
2018-03-03T05:05:43.158Z,0
2018-03-03T05:06:53.451Z,0
2018-03-03T05:08:03.568Z,0
2018-03-03T05:09:13.482Z,0
2018-03-03T05:10:23.097Z,0
2018-03-03T05:11:33.298Z,0
2018-03-03T05:12:43.460Z,0
2018-03-03T05:13:53.669Z,0
2018-03-03T05:15:03.791Z,0
2018-03-03T05:16:13.661Z,0
2018-03-03T05:17:23.562Z,0
2018-03-03T05:18:33.706Z,0
2018-03-03T05:19:43.850Z,0
2018-03-03T05:20:54.167Z,0
2018-03-03T05:22:03.802Z,0
2018-03-03T05:23:13.817Z,0
2018-03-03T05:24:23.927Z,0
2018-03-03T05:25:34.053Z,0
2018-03-03T05:26:44.207Z,0
2018-03-03T05:27:54.387Z,0
2018-03-03T05:29:03.999Z,0
2018-03-03T05:30:13.814Z,0
2018-03-03T05:31:23.411Z,0
2018-03-03T05:32:33.271Z,0
2018-03-03T05:33:42.909Z,0
2018-03-03T05:34:52.891Z,0
2018-03-03T05:36:03.068Z,0
2018-03-03T05:37:13.269Z,0
2018-03-03T05:38:22.906Z,0
2018-03-03T05:39:33.058Z,0
2018-03-03T05:40:43.170Z,0
2018-03-03T05:41:53.066Z,0
2018-03-03T05:43:03.180Z,0
2018-03-03T05:44:13.500Z,0
2018-03-03T05:45:23.154Z,0
2018-03-03T05:46:33.054Z,0
2018-03-03T05:47:43.366Z,0
2018-03-03T05:48:53.550Z,0
2018-03-03T05:50:03.399Z,5
2018-03-03T05:51:13.553Z,5
2018-03-03T05:52:23.668Z,5
2018-03-03T05:53:33.833Z,5
2018-03-03T05:54:43.947Z,5
2018-03-03T05:55:54.124Z,5
2018-03-03T05:57:03.971Z,10
2018-03-03T05:58:14.129Z,10
2018-03-03T05:59:24.333Z,10
2018-03-03T06:00:34.451Z,10
2018-03-03T06:01:44.593Z,10
2018-03-03T06:02:54.854Z,15
2018-03-03T06:04:05.035Z,15
2018-03-03T06:05:14.957Z,15
2018-03-03T06:06:25.129Z,20
2018-03-03T06:07:35.257Z,20
2018-03-03T06:08:45.430Z,20
2018-03-03T06:09:55.630Z,20
2018-03-03T06:11:05.785Z,25
2018-03-03T06:12:16.927Z,25
2018-03-03T06:13:27.205Z,25
2018-03-03T06:14:37.497Z,30
2018-03-03T06:15:47.772Z,30
2018-03-03T06:16:57.902Z,35
2018-03-03T06:18:08.096Z,35
2018-03-03T06:19:18.460Z,35
2018-03-03T06:20:28.626Z,40
2018-03-03T06:21:38.831Z,40
2018-03-03T06:22:49.048Z,40
2018-03-03T06:23:59.200Z,45
2018-03-03T06:25:09.404Z,45
2018-03-03T06:26:19.292Z,50
2018-03-03T06:27:29.421Z,50
2018-03-03T06:28:39.626Z,50
2018-03-03T06:29:49.961Z,55
2018-03-03T06:31:00.103Z,55
2018-03-03T06:32:10.285Z,60
2018-03-03T06:33:20.415Z,60
2018-03-03T06:34:30.554Z,60
2018-03-03T06:35:40.704Z,65
2018-03-03T06:36:50.868Z,65
2018-03-03T06:38:01.012Z,65
2018-03-03T06:39:11.149Z,65
2018-03-03T06:40:21.534Z,70
2018-03-03T06:41:31.700Z,70
2018-03-03T06:42:41.835Z,70
2018-03-03T06:43:52.096Z,75
2018-03-03T06:45:02.364Z,75
2018-03-03T06:46:12.603Z,80
2018-03-03T06:47:22.874Z,80
2018-03-03T06:48:33.165Z,85
2018-03-03T06:49:43.349Z,85
2018-03-03T06:50:53.530Z,90
2018-03-03T06:52:03.730Z,90
2018-03-03T06:53:13.894Z,90
2018-03-03T06:54:24.051Z,95
2018-03-03T06:55:34.330Z,95
2018-03-03T06:56:44.605Z,100
2018-03-03T06:57:54.788Z,100
2018-03-03T06:59:05.048Z,105
2018-03-03T07:00:15.203Z,105
2018-03-03T07:01:25.122Z,110
2018-03-03T07:02:35.279Z,110
2018-03-03T07:03:45.427Z,115
2018-03-03T07:04:55.625Z,115
2018-03-03T07:06:05.407Z,120
2018-03-03T07:07:15.271Z,130
2018-03-03T07:08:25.278Z,125
2018-03-03T07:09:35.453Z,130
2018-03-03T07:10:45.265Z,135
2018-03-03T07:11:55.530Z,135
2018-03-03T07:13:05.387Z,135
2018-03-03T07:14:15.280Z,140
2018-03-03T07:15:25.107Z,145
2018-03-03T07:16:34.767Z,150
2018-03-03T07:17:44.306Z,155
2018-03-03T07:18:54.446Z,155
2018-03-03T07:20:04.606Z,160
2018-03-03T07:21:14.132Z,165
2018-03-03T07:22:24.396Z,165
2018-03-03T07:23:34.537Z,165
2018-03-03T07:24:44.725Z,170
2018-03-03T07:25:54.606Z,175
2018-03-03T07:27:04.785Z,175
2018-03-03T07:28:14.689Z,180
2018-03-03T07:29:24.618Z,185
2018-03-03T07:30:34.575Z,185
2018-03-03T07:31:44.728Z,190
2018-03-03T07:32:54.860Z,195
2018-03-03T07:34:05.012Z,195
2018-03-03T07:35:15.138Z,200
2018-03-03T07:36:24.999Z,210
2018-03-03T07:37:35.178Z,205
2018-03-03T07:38:45.363Z,245
2018-03-03T07:39:55.255Z,325
2018-03-03T07:41:05.446Z,390
2018-03-03T07:42:15.568Z,420
2018-03-03T07:43:25.748Z,450
2018-03-03T07:44:35.539Z,470
2018-03-03T07:45:45.670Z,490
2018-03-03T07:46:55.834Z,495
2018-03-03T07:48:05.990Z,500
2018-03-03T07:49:16.139Z,510
2018-03-03T07:50:25.789Z,530
2018-03-03T07:51:35.923Z,575
2018-03-03T07:52:46.061Z,610
2018-03-03T07:53:56.214Z,615
2018-03-03T07:55:06.444Z,605
2018-03-03T07:56:16.357Z,605
2018-03-03T07:57:26.680Z,610
2018-03-03T07:58:37.017Z,635
2018-03-03T07:59:48.191Z,660
2018-03-03T08:00:58.330Z,655
2018-03-03T08:02:08.563Z,660
2018-03-03T08:03:18.504Z,665
2018-03-03T08:04:28.905Z,690
2018-03-03T08:05:38.857Z,700
2018-03-03T08:06:49.167Z,730
2018-03-03T08:07:59.326Z,770
2018-03-03T08:09:09.267Z,815
2018-03-03T08:10:19.396Z,850
2018-03-03T08:11:29.584Z,855
2018-03-03T08:12:39.735Z,850
2018-03-03T08:13:49.893Z,940
2018-03-03T08:14:59.168Z,1015
2018-03-03T08:16:09.441Z,960
2018-03-03T08:17:19.607Z,945
2018-03-03T08:18:29.787Z,935
2018-03-03T08:19:39.795Z,905
2018-03-03T08:20:49.682Z,905
2018-03-03T08:21:59.578Z,890
2018-03-03T08:23:09.755Z,875
2018-03-03T08:24:19.947Z,910
2018-03-03T08:25:29.848Z,950
2018-03-03T08:26:39.712Z,940
2018-03-03T08:27:49.879Z,905
2018-03-03T08:28:59.799Z,895
2018-03-03T08:30:10.024Z,920
2018-03-03T08:31:20.195Z,955
2018-03-03T08:32:30.382Z,955
2018-03-03T08:33:40.049Z,965
2018-03-03T08:34:50.211Z,990
2018-03-03T08:36:00.029Z,1010
2018-03-03T08:37:10.188Z,1020
2018-03-03T08:38:20.290Z,1010
2018-03-03T08:39:30.432Z,985
2018-03-03T08:40:40.657Z,990
2018-03-03T08:41:50.923Z,985
2018-03-03T08:43:01.154Z,980
2018-03-03T08:44:11.393Z,990
2018-03-03T08:45:21.619Z,1035
2018-03-03T08:46:31.827Z,1090
2018-03-03T08:47:41.974Z,1105
2018-03-03T08:48:54.138Z,1105
2018-03-03T08:50:04.168Z,1150
2018-03-03T08:51:14.069Z,1205
2018-03-03T08:52:24.290Z,1185
2018-03-03T08:53:34.322Z,1140
2018-03-03T08:54:44.216Z,1110
2018-03-03T08:55:54.349Z,1130
2018-03-03T08:57:04.572Z,1205
2018-03-03T08:58:14.733Z,1285
2018-03-03T08:59:24.921Z,1245
2018-03-03T09:00:35.091Z,1180
2018-03-03T09:01:44.887Z,1150
2018-03-03T09:02:55.071Z,1180
2018-03-03T09:04:05.270Z,1210
2018-03-03T09:05:15.093Z,1250
2018-03-03T09:06:25.518Z,1255
2018-03-03T09:07:35.416Z,1230
2018-03-03T09:08:45.590Z,1220
2018-03-03T09:09:55.479Z,1195
2018-03-03T09:11:05.654Z,1175
2018-03-03T09:12:15.667Z,1160
2018-03-03T09:13:25.469Z,1190
2018-03-03T09:14:35.696Z,1195
2018-03-03T09:15:45.930Z,1235
2018-03-03T09:16:56.098Z,1260
2018-03-03T09:18:06.242Z,1285
2018-03-03T09:19:16.144Z,1325
2018-03-03T09:20:26.281Z,1350
2018-03-03T09:21:36.652Z,1330
2018-03-03T09:22:46.598Z,1320
2018-03-03T09:23:56.475Z,1365
2018-03-03T09:25:06.466Z,1405
2018-03-03T09:26:16.623Z,1390
2018-03-03T09:27:26.810Z,1365
2018-03-03T09:28:37.089Z,1355
2018-03-03T09:29:47.146Z,1370
2018-03-03T09:30:56.666Z,1395
2018-03-03T09:32:06.889Z,1405
2018-03-03T09:33:17.172Z,1425
2018-03-03T09:34:27.080Z,1430
2018-03-03T09:35:36.671Z,1395
2018-03-03T09:36:47.034Z,1365
2018-03-03T09:37:57.024Z,1375
2018-03-03T09:39:07.442Z,1380
2018-03-03T09:40:17.344Z,1400
2018-03-03T09:41:27.313Z,1455
2018-03-03T09:42:37.217Z,1550
2018-03-03T09:43:47.608Z,1605
2018-03-03T09:44:57.972Z,1670
2018-03-03T09:46:08.257Z,1665
2018-03-03T09:47:18.151Z,1590
2018-03-03T09:48:27.811Z,1500
2018-03-03T09:49:38.012Z,1475
2018-03-03T09:50:47.975Z,1470
2018-03-03T09:51:58.273Z,1515
2018-03-03T09:53:08.276Z,1480
2018-03-03T09:54:18.258Z,1430
2018-03-03T09:55:28.455Z,1465
2018-03-03T09:56:38.697Z,1455
2018-03-03T09:57:48.904Z,1520
2018-03-03T09:58:59.204Z,1575
2018-03-03T10:00:09.406Z,1575
2018-03-03T10:01:19.659Z,1610
2018-03-03T10:02:29.987Z,1670
2018-03-03T10:03:40.181Z,1745
2018-03-03T10:04:50.388Z,1725
2018-03-03T10:06:00.680Z,1640
2018-03-03T10:07:10.905Z,1565
2018-03-03T10:08:20.623Z,1535
2018-03-03T10:09:30.917Z,1490
2018-03-03T10:10:41.155Z,1505
2018-03-03T10:11:51.336Z,1510
2018-03-03T10:13:01.578Z,1535
2018-03-03T10:14:11.736Z,1620
2018-03-03T10:15:21.648Z,1700
2018-03-03T10:16:31.860Z,1690
2018-03-03T10:17:42.087Z,1635
2018-03-03T10:18:52.313Z,1595
2018-03-03T10:20:02.798Z,1620
2018-03-03T10:21:12.209Z,1610
2018-03-03T10:22:22.207Z,1625
2018-03-03T10:23:32.088Z,1660
2018-03-03T10:24:42.268Z,1715
2018-03-03T10:25:52.462Z,1760
2018-03-03T10:27:02.754Z,1850
2018-03-03T10:28:13.952Z,1905
2018-03-03T10:29:24.067Z,1845
2018-03-03T10:30:34.226Z,1745
2018-03-03T10:31:44.555Z,1690
2018-03-03T10:32:54.778Z,1675
2018-03-03T10:34:05.030Z,1700
2018-03-03T10:35:15.264Z,1670
2018-03-03T10:36:25.440Z,1735
2018-03-03T10:37:35.654Z,1800
2018-03-03T10:38:45.347Z,1850
2018-03-03T10:39:55.707Z,1855
2018-03-03T10:41:05.386Z,1845
2018-03-03T10:42:15.360Z,1900
2018-03-03T10:43:25.941Z,1985
2018-03-03T10:44:36.122Z,1885
2018-03-03T10:45:46.295Z,1810
2018-03-03T10:46:56.283Z,1715
2018-03-03T10:48:06.469Z,1715
2018-03-03T10:49:16.696Z,1740
2018-03-03T10:50:26.906Z,1815
2018-03-03T10:51:37.225Z,1855
2018-03-03T10:52:47.508Z,1865
2018-03-03T10:53:57.742Z,1860
2018-03-03T10:55:08.165Z,1880
2018-03-03T10:56:17.758Z,1890
2018-03-03T10:57:27.939Z,1900
2018-03-03T10:58:38.258Z,1925
2018-03-03T10:59:48.091Z,1915
2018-03-03T11:00:57.642Z,1925
2018-03-03T11:02:07.613Z,1870
2018-03-03T11:03:17.842Z,1835
2018-03-03T11:04:27.815Z,1770
2018-03-03T11:05:37.501Z,1785
2018-03-03T11:06:47.753Z,1870
2018-03-03T11:07:57.722Z,1995
2018-03-03T11:09:08.082Z,2145
2018-03-03T11:10:18.178Z,2175
2018-03-03T11:11:28.483Z,2185
2018-03-03T11:12:38.747Z,2075
2018-03-03T11:13:49.061Z,1950
2018-03-03T11:14:59.308Z,1960
2018-03-03T11:16:09.527Z,1920
2018-03-03T11:17:19.692Z,1870
2018-03-03T11:18:29.933Z,1855
2018-03-03T11:19:39.865Z,1890
2018-03-03T11:20:49.810Z,1895
2018-03-03T11:21:59.735Z,1935
2018-03-03T11:23:09.957Z,2015
2018-03-03T11:24:19.358Z,2045
2018-03-03T11:25:29.564Z,2105
2018-03-03T11:26:39.833Z,2135
2018-03-03T11:27:50.189Z,2105
2018-03-03T11:29:00.161Z,1975
2018-03-03T11:30:10.391Z,1905
2018-03-03T11:31:20.570Z,1875
2018-03-03T11:32:30.466Z,2075
2018-03-03T11:33:40.665Z,2265
2018-03-03T11:34:50.367Z,2290
2018-03-03T11:36:00.578Z,2155
2018-03-03T11:37:10.791Z,1950
2018-03-03T11:38:21.015Z,1810
2018-03-03T11:39:31.109Z,1800
2018-03-03T11:40:43.229Z,1775
2018-03-03T11:41:53.502Z,1865
2018-03-03T11:43:03.679Z,1975
2018-03-03T11:44:13.921Z,2085
2018-03-03T11:45:23.747Z,2105
2018-03-03T11:46:33.964Z,2010
2018-03-03T11:47:43.912Z,1970
2018-03-03T11:48:53.976Z,1935
2018-03-03T11:50:05.445Z,1935
2018-03-03T11:51:15.812Z,1925
2018-03-03T11:52:26.250Z,1885
2018-03-03T11:53:40.531Z,1840
2018-03-03T11:54:50.747Z,1840
2018-03-03T11:56:04.736Z,1895
2018-03-03T11:57:15.219Z,1955
2018-03-03T11:58:25.571Z,1970
2018-03-03T11:59:35.862Z,1940
2018-03-03T12:00:46.149Z,1875
2018-03-03T12:01:56.388Z,1850
2018-03-03T12:03:06.637Z,1845
2018-03-03T12:04:16.593Z,1875
2018-03-03T12:05:27.031Z,1920
2018-03-03T12:06:37.386Z,1945
2018-03-03T12:07:47.775Z,1965
2018-03-03T12:08:58.025Z,1970
2018-03-03T12:10:07.981Z,1920
2018-03-03T12:11:18.436Z,1910
2018-03-03T12:12:28.106Z,2040
2018-03-03T12:13:38.250Z,2160
2018-03-03T12:14:48.479Z,2235
2018-03-03T12:15:58.625Z,2180
2018-03-03T12:17:08.534Z,2130
2018-03-03T12:18:18.307Z,2025
2018-03-03T12:19:28.471Z,2035
2018-03-03T12:20:38.514Z,2080
2018-03-03T12:21:48.478Z,2090
2018-03-03T12:22:58.454Z,2100
2018-03-03T12:24:08.639Z,2105
2018-03-03T12:25:18.564Z,2125
2018-03-03T12:26:28.809Z,2185
2018-03-03T12:27:38.470Z,2255
2018-03-03T12:28:48.999Z,2300
2018-03-03T12:29:59.103Z,2280
2018-03-03T12:31:09.432Z,2220
2018-03-03T12:32:19.760Z,2140
2018-03-03T12:33:30.220Z,2105
2018-03-03T12:34:40.243Z,2120
2018-03-03T12:35:50.582Z,2035
2018-03-03T12:37:00.750Z,1955
2018-03-03T12:38:10.711Z,1965
2018-03-03T12:39:20.340Z,1990
2018-03-03T12:40:30.782Z,1985
2018-03-03T12:41:40.471Z,1975
2018-03-03T12:42:50.736Z,2055
2018-03-03T12:45:26.391Z,1995
2018-03-03T12:46:37.017Z,1905
2018-03-03T12:47:51.370Z,1840
2018-03-03T12:50:17.735Z,1725
2018-03-03T12:51:27.958Z,1650
2018-03-03T12:52:37.876Z,1595
2018-03-03T12:53:48.076Z,1570
2018-03-03T12:54:58.369Z,1555
2018-03-03T12:56:08.605Z,1610
2018-03-03T12:57:18.379Z,1855
2018-03-03T12:58:28.371Z,2075
2018-03-03T12:59:38.784Z,2155
2018-03-03T13:00:48.615Z,2120
2018-03-03T13:01:58.624Z,1905
2018-03-03T13:03:08.645Z,1800
2018-03-03T13:04:18.627Z,1755
2018-03-03T13:05:28.460Z,1745
2018-03-03T13:06:38.722Z,1785
2018-03-03T13:07:48.949Z,1875
2018-03-03T13:08:58.651Z,1855
2018-03-03T13:10:08.614Z,1810
2018-03-03T13:11:18.965Z,1840
2018-03-03T13:12:28.911Z,1785
2018-03-03T13:13:38.867Z,1670
2018-03-03T13:14:48.268Z,1615
2018-03-03T13:15:59.544Z,1670
2018-03-03T13:17:09.749Z,1725
2018-03-03T13:18:19.954Z,1675
2018-03-03T13:19:29.802Z,1580
2018-03-03T13:20:40.046Z,1550
2018-03-03T13:21:50.302Z,1565
2018-03-03T13:23:00.538Z,1600
2018-03-03T13:24:10.750Z,1630
2018-03-03T13:25:20.477Z,1705
2018-03-03T13:26:30.445Z,1815
2018-03-03T13:27:40.823Z,1875
2018-03-03T13:28:51.063Z,1840
2018-03-03T13:30:01.300Z,1720
2018-03-03T13:31:11.472Z,1600
2018-03-03T13:32:21.488Z,1515
2018-03-03T13:33:31.812Z,1480
2018-03-03T13:34:42.036Z,1475
2018-03-03T13:35:52.519Z,1470
2018-03-03T13:37:02.745Z,1465
2018-03-03T13:38:14.139Z,1500
2018-03-03T13:39:24.995Z,1550
2018-03-03T13:40:34.884Z,1625
2018-03-03T13:41:44.757Z,1645
2018-03-03T13:42:54.738Z,1640
2018-03-03T13:44:05.079Z,1525
2018-03-03T13:45:15.385Z,1445
2018-03-03T13:46:25.577Z,1375
2018-03-03T13:47:35.917Z,1355
2018-03-03T13:48:46.169Z,1380
2018-03-03T13:49:56.488Z,1420
2018-03-03T13:51:06.334Z,1430
2018-03-03T13:52:16.552Z,1420
2018-03-03T13:53:27.797Z,1385
2018-03-03T13:54:37.989Z,1390
2018-03-03T13:55:49.620Z,1470
2018-03-03T13:56:59.783Z,1445
2018-03-03T13:58:09.376Z,1415
2018-03-03T13:59:19.329Z,1450
2018-03-03T14:00:29.510Z,1460
2018-03-03T14:01:39.716Z,1460
2018-03-03T14:02:49.951Z,1415
2018-03-03T14:03:59.682Z,1390
2018-03-03T14:05:09.552Z,1395
2018-03-03T14:06:19.197Z,1425
2018-03-03T14:07:28.867Z,1420
2018-03-03T14:08:39.041Z,1350
2018-03-03T14:09:49.249Z,1290
2018-03-03T14:10:59.179Z,1250
2018-03-03T14:12:09.456Z,1245
2018-03-03T14:13:19.143Z,1195
2018-03-03T14:14:29.385Z,1200
2018-03-03T14:15:39.632Z,1255
2018-03-03T14:16:49.544Z,1300
2018-03-03T14:17:59.802Z,1230
2018-03-03T14:19:09.484Z,1170
2018-03-03T14:20:19.436Z,1165
2018-03-03T14:21:29.639Z,1130
2018-03-03T14:22:39.194Z,1150
2018-03-03T14:23:49.392Z,1160
2018-03-03T14:24:59.728Z,1105
2018-03-03T14:26:10.168Z,1080
2018-03-03T14:27:21.404Z,1110
2018-03-03T14:28:31.638Z,1165
2018-03-03T14:29:41.961Z,1190
2018-03-03T14:30:52.216Z,1115
2018-03-03T14:32:02.427Z,1035
2018-03-03T14:33:12.249Z,1010
2018-03-03T14:34:21.929Z,1035
2018-03-03T14:35:32.133Z,1055
2018-03-03T14:36:42.325Z,1060
2018-03-03T14:37:52.549Z,1035
2018-03-03T14:39:02.365Z,990
2018-03-03T14:40:12.632Z,970
2018-03-03T14:41:22.677Z,955
2018-03-03T14:42:32.608Z,930
2018-03-03T14:43:42.840Z,940
2018-03-03T14:44:53.532Z,970
2018-03-03T14:46:03.590Z,935
2018-03-03T14:47:13.928Z,915
2018-03-03T14:48:24.244Z,945
2018-03-03T14:49:34.425Z,930
2018-03-03T14:50:44.666Z,880
2018-03-03T14:51:54.890Z,850
2018-03-03T14:53:05.079Z,850
2018-03-03T14:54:15.418Z,870
2018-03-03T14:55:25.595Z,865
2018-03-03T14:56:36.162Z,845
2018-03-03T14:57:46.390Z,840
2018-03-03T14:58:56.583Z,825
2018-03-03T15:00:06.794Z,820
2018-03-03T15:01:16.981Z,840
2018-03-03T15:02:27.162Z,840
2018-03-03T15:03:37.424Z,775
2018-03-03T15:04:47.622Z,770
2018-03-03T15:05:57.834Z,795
2018-03-03T15:07:08.137Z,740
2018-03-03T15:08:18.345Z,695
2018-03-03T15:09:28.579Z,700
2018-03-03T15:10:38.781Z,695
2018-03-03T15:11:49.018Z,705
2018-03-03T15:12:59.217Z,680
2018-03-03T15:14:09.453Z,655
2018-03-03T15:15:19.648Z,645
2018-03-03T15:16:29.825Z,650
2018-03-03T15:17:39.997Z,635
2018-03-03T15:18:50.290Z,635
2018-03-03T15:20:00.614Z,615
2018-03-03T15:21:10.496Z,590
2018-03-03T15:22:20.997Z,590
2018-03-03T15:23:31.196Z,625
2018-03-03T15:24:41.397Z,595
2018-03-03T15:25:51.632Z,550
2018-03-03T15:27:01.803Z,505
2018-03-03T15:28:12.056Z,505
2018-03-03T15:29:22.365Z,505
2018-03-03T15:30:32.545Z,500
2018-03-03T15:31:42.767Z,500
2018-03-03T15:32:52.642Z,515
2018-03-03T15:34:02.829Z,505
2018-03-03T15:35:13.059Z,470
2018-03-03T15:36:23.229Z,455
2018-03-03T15:37:33.493Z,455
2018-03-03T15:38:43.728Z,400
2018-03-03T15:39:53.905Z,245
2018-03-03T15:41:03.741Z,230
2018-03-03T15:42:13.926Z,310
2018-03-03T15:43:23.568Z,380
2018-03-03T15:44:33.468Z,340
2018-03-03T15:45:43.627Z,255
2018-03-03T15:46:53.812Z,185
2018-03-03T15:48:04.015Z,170
2018-03-03T15:49:14.236Z,155
2018-03-03T15:50:24.504Z,150
2018-03-03T15:51:34.330Z,140
2018-03-03T15:52:44.544Z,135
2018-03-03T15:53:54.503Z,130
2018-03-03T15:55:04.485Z,125
2018-03-03T15:56:14.685Z,125
2018-03-03T15:57:24.857Z,115
2018-03-03T15:58:34.518Z,105
2018-03-03T15:59:44.444Z,100
2018-03-03T16:00:54.626Z,90
2018-03-03T16:02:04.556Z,85
2018-03-03T16:03:14.829Z,75
2018-03-03T16:04:25.048Z,75
2018-03-03T16:05:38.766Z,70
2018-03-03T16:06:52.380Z,70
2018-03-03T16:08:02.654Z,65
2018-03-03T16:09:12.914Z,65
2018-03-03T16:10:23.132Z,65
2018-03-03T16:11:33.308Z,65
2018-03-03T16:12:43.176Z,65
2018-03-03T16:13:53.427Z,60
2018-03-03T16:15:03.639Z,60
2018-03-03T16:16:13.972Z,60
2018-03-03T16:17:24.610Z,55
2018-03-03T16:18:34.502Z,55
2018-03-03T16:19:44.737Z,55
2018-03-03T16:20:54.984Z,50
2018-03-03T16:22:04.956Z,50
2018-03-03T16:23:15.041Z,50
2018-03-03T16:24:25.003Z,45